Time;durP1;ratioP1;P1;durP2;ratioP2;P2;SDS_P1;SDS_P2;PMS_P1;PMS_P2;Temp;Humidity;BMP_temperature;BMP_pressure;BME280_temperature;BME280_humidity;BME280_pressure;Samples;Min_cycle;Max_cycle;Signal;HPM_P1;HPM_P2
2021/01/29 00:01:31;;;;;;;257.20;178.52;;;;;;;;;;5055021;28;20033;-74
2021/01/29 00:03:57;;;;;;;255.80;163.75;;;;;;;;;;5058114;28;20381;-73
2021/01/29 00:06:23;;;;;;;265.48;194.32;;;;;;;;;;5057628;28;20081;-74
2021/01/29 00:08:49;;;;;;;251.77;162.93;;;;;;;;;;5061539;28;20029;-73
2021/01/29 00:11:15;;;;;;;262.40;188.10;;;;;;;;;;5060891;28;20041;-74
2021/01/29 00:13:41;;;;;;;277.92;231.32;;;;;;;;;;5058617;28;20059;-74
2021/01/29 00:16:07;;;;;;;334.40;300.45;;;;;;;;;;5054554;28;20095;-73
2021/01/29 00:18:33;;;;;;;272.65;221.95;;;;;;;;;;5069163;28;20047;-73
2021/01/29 00:20:59;;;;;;;271.27;222.07;;;;;;;;;;5061729;28;20118;-74
2021/01/29 00:23:25;;;;;;;267.60;217.77;;;;;;;;;;5066761;28;20033;-74
2021/01/29 00:25:52;;;;;;;269.20;214.48;;;;;;;;;;5061170;28;20031;-74
2021/01/29 00:28:18;;;;;;;260.70;195.52;;;;;;;;;;5070861;28;20029;-74
2021/01/29 00:30:45;;;;;;;263.08;209.20;;;;;;;;;;5058199;28;20033;-74
2021/01/29 00:33:12;;;;;;;264.65;211.77;;;;;;;;;;5057266;28;20031;-73
2021/01/29 00:35:38;;;;;;;;;;;;;;;;;;5056065;28;20100;-73
2021/01/29 00:38:05;;;;;;;270.58;236.80;;;;;;;;;;5059978;28;19999;-74
2021/01/29 00:40:31;;;;;;;268.20;226.55;;;;;;;;;;5057816;28;20039;-74
2021/01/29 00:42:57;;;;;;;271.33;231.45;;;;;;;;;;5071755;28;20024;-74
2021/01/29 00:45:25;;;;;;;263.15;213.27;;;;;;;;;;5061818;28;20519;-74
2021/01/29 00:47:51;;;;;;;;;;;;;;;;;;5065504;28;20433;-74
2021/01/29 00:50:17;;;;;;;311.25;279.38;;;;;;;;;;5054873;28;19916;-74
2021/01/29 00:52:43;;;;;;;269.23;229.40;;;;;;;;;;5064155;28;20153;-74
2021/01/29 00:55:09;;;;;;;272.65;242.43;;;;;;;;;;5059988;28;20123;-74
2021/01/29 00:57:35;;;;;;;260.43;207.97;;;;;;;;;;5056359;28;20028;-74
2021/01/29 01:00:01;;;;;;;269.00;228.77;;;;;;;;;;5055294;28;20029;-74
2021/01/29 01:02:27;;;;;;;271.27;236.00;;;;;;;;;;5057614;28;20447;-74
2021/01/29 01:04:54;;;;;;;268.33;236.73;;;;;;;;;;5059024;28;20025;-73
2021/01/29 01:07:20;;;;;;;293.13;261.75;;;;;;;;;;5057648;28;20024;-74
2021/01/29 01:09:46;;;;;;;273.65;242.43;;;;;;;;;;5055186;28;20385;-73
2021/01/29 01:12:12;;;;;;;269.85;231.27;;;;;;;;;;5056053;28;20392;-73
2021/01/29 01:14:38;;;;;;;265.48;219.30;;;;;;;;;;5061269;28;20413;-74
2021/01/29 01:17:05;;;;;;;256.83;188.82;;;;;;;;;;5056091;28;20108;-73
2021/01/29 01:19:31;;;;;;;250.47;167.67;;;;;;;;;;5056538;28;20029;-73
2021/01/29 01:21:57;;;;;;;251.93;177.82;;;;;;;;;;5054681;28;20282;-74
2021/01/29 01:24:23;;;;;;;277.15;246.85;;;;;;;;;;5069644;28;20033;-74
2021/01/29 01:26:48;;;;;;;267.33;217.93;;;;;;;;;;5060780;28;20052;-74
2021/01/29 01:29:14;;;;;;;256.45;184.18;;;;;;;;;;5069380;28;20477;-73
2021/01/29 01:31:40;;;;;;;259.55;193.57;;;;;;;;;;5055198;28;20473;-74
2021/01/29 01:34:06;;;;;;;272.88;238.20;;;;;;;;;;5062028;28;20021;-74
2021/01/29 01:36:32;;;;;;;275.60;244.50;;;;;;;;;;5059539;28;20033;-74
2021/01/29 01:38:58;;;;;;;268.98;238.40;;;;;;;;;;5063931;28;20036;-74
2021/01/29 01:41:24;;;;;;;265.20;223.15;;;;;;;;;;5070985;28;20071;-74
2021/01/29 01:43:50;;;;;;;266.48;232.30;;;;;;;;;;5064344;28;20043;-74
2021/01/29 01:46:17;;;;;;;268.27;229.82;;;;;;;;;;5073596;28;20392;-74
2021/01/29 01:48:53;;;;;;;263.40;223.20;;;;;;;;;;5054295;28;20032;-74
2021/01/29 01:51:42;;;;;;;265.25;222.27;;;;;;;;;;5066775;28;20108;-73
2021/01/29 01:54:16;;;;;;;260.77;214.70;;;;;;;;;;5063052;28;20436;-74
2021/01/29 01:56:44;;;;;;;261.95;217.48;;;;;;;;;;5065154;28;20063;-74
2021/01/29 01:59:15;;;;;;;264.27;222.90;;;;;;;;;;5062063;28;20029;-74
2021/01/29 02:01:43;;;;;;;273.85;240.82;;;;;;;;;;5062362;28;20025;-74
2021/01/29 02:04:09;;;;;;;268.13;231.27;;;;;;;;;;5070579;28;20040;-74
2021/01/29 02:06:40;;;;;;;258.15;195.13;;;;;;;;;;5062568;28;20031;-74
2021/01/29 02:09:06;;;;;;;265.70;229.35;;;;;;;;;;5071838;28;20056;-74
2021/01/29 02:11:32;;;;;;;273.08;231.75;;;;;;;;;;5064249;28;20035;-74
2021/01/29 02:13:58;;;;;;;264.58;215.57;;;;;;;;;;5067083;28;20021;-74
2021/01/29 02:16:33;;;;;;;268.00;229.43;;;;;;;;;;5064686;28;20060;-73
2021/01/29 02:19:14;;;;;;;296.58;265.33;;;;;;;;;;5058697;28;20462;-74
2021/01/29 02:21:46;;;;;;;270.27;237.13;;;;;;;;;;5063363;28;20028;-73
2021/01/29 02:24:24;;;;;;;264.10;225.32;;;;;;;;;;5060603;28;20086;-74
2021/01/29 02:27:07;;;;;;;265.38;223.60;;;;;;;;;;5072225;28;20024;-74
2021/01/29 02:29:36;;;;;;;302.75;271.58;;;;;;;;;;5072292;28;20035;-74
2021/01/29 02:32:17;;;;;;;268.02;228.43;;;;;;;;;;5071414;28;20443;-74
2021/01/29 02:34:49;;;;;;;264.60;224.80;;;;;;;;;;5065423;28;20490;-73
2021/01/29 02:37:50;;;;;;;270.45;238.02;;;;;;;;;;5069827;28;20086;-73
2021/01/29 02:40:20;;;;;;;266.55;224.68;;;;;;;;;;5060994;28;20036;-74
2021/01/29 02:42:57;;;;;;;255.75;189.18;;;;;;;;;;5056569;28;20047;-74
2021/01/29 02:45:29;;;;;;;330.45;297.00;;;;;;;;;;5056514;28;20080;-74
2021/01/29 02:48:04;;;;;;;286.38;255.57;;;;;;;;;;5062202;28;20025;-75
2021/01/29 02:50:30;;;;;;;261.60;215.48;;;;;;;;;;5057324;28;20041;-75
2021/01/29 02:52:56;;;;;;;263.52;222.18;;;;;;;;;;5064466;28;20025;-74
2021/01/29 02:55:36;;;;;;;265.45;222.48;;;;;;;;;;5058142;28;20037;-75
2021/01/29 02:58:21;;;;;;;266.17;225.63;;;;;;;;;;5063463;28;20088;-74
2021/01/29 03:00:51;;;;;;;264.13;222.85;;;;;;;;;;5052182;28;20024;-74
2021/01/29 03:03:22;;;;;;;1470.50;999.90;;;;;;;;;;5053391;28;20143;-74
2021/01/29 03:06:00;;;;;;;264.50;212.32;;;;;;;;;;5058239;28;20477;-74
2021/01/29 03:08:28;;;;;;;266.35;219.77;;;;;;;;;;5059279;28;20028;-73
2021/01/29 03:11:05;;;;;;;266.67;225.77;;;;;;;;;;5052657;28;20040;-73
2021/01/29 03:13:38;;;;;;;260.23;212.52;;;;;;;;;;5059292;28;20105;-74
2021/01/29 03:16:11;;;;;;;261.45;212.52;;;;;;;;;;5058494;28;20032;-73
2021/01/29 03:18:42;;;;;;;269.08;227.60;;;;;;;;;;5058999;28;20033;-74
2021/01/29 03:21:20;;;;;;;257.42;201.75;;;;;;;;;;5056412;28;20135;-74
2021/01/29 03:23:49;;;;;;;257.65;205.90;;;;;;;;;;5052611;28;20025;-74
2021/01/29 03:26:20;;;;;;;259.65;209.18;;;;;;;;;;5053078;28;20033;-74
2021/01/29 03:28:51;;;;;;;267.88;227.98;;;;;;;;;;5053514;28;20032;-73
2021/01/29 03:31:18;;;;;;;260.35;217.50;;;;;;;;;;5059048;28;20045;-74
2021/01/29 03:33:46;;;;;;;329.17;296.13;;;;;;;;;;5059534;28;20452;-74
2021/01/29 03:36:17;;;;;;;266.30;216.93;;;;;;;;;;5069886;28;20032;-74
2021/01/29 03:38:58;;;;;;;1469.72;999.90;;;;;;;;;;5068949;28;20025;-73
2021/01/29 03:41:34;;;;;;;290.55;259.40;;;;;;;;;;5063715;28;20024;-74
2021/01/29 03:44:00;;;;;;;269.15;233.43;;;;;;;;;;5056325;28;20032;-74
2021/01/29 03:46:26;;;;;;;261.00;207.48;;;;;;;;;;5061290;28;20380;-74
2021/01/29 03:48:58;;;;;;;261.75;204.90;;;;;;;;;;5064089;28;20060;-73
2021/01/29 03:51:33;;;;;;;286.55;254.80;;;;;;;;;;5060165;28;20048;-73
2021/01/29 03:54:06;;;;;;;267.02;219.10;;;;;;;;;;5061435;28;20020;-74
2021/01/29 03:56:47;;;;;;;268.10;229.88;;;;;;;;;;5059719;28;20037;-74
2021/01/29 03:59:27;;;;;;;265.55;216.98;;;;;;;;;;5064546;28;20153;-74
2021/01/29 04:01:52;;;;;;;272.27;233.45;;;;;;;;;;5062642;28;20025;-74
2021/01/29 04:04:30;;;;;;;1470.55;999.90;;;;;;;;;;5061617;28;20046;-74
2021/01/29 04:06:56;;;;;;;324.17;291.42;;;;;;;;;;5052126;28;20071;-74
2021/01/29 04:09:34;;;;;;;1476.28;999.90;;;;;;;;;;5053952;28;20389;-74
2021/01/29 04:12:01;;;;;;;283.35;252.35;;;;;;;;;;5052369;28;20088;-73
2021/01/29 04:14:38;;;;;;;374.38;339.08;;;;;;;;;;5053388;28;20030;-74
2021/01/29 04:17:09;;;;;;;281.98;250.43;;;;;;;;;;5052393;28;20025;-74
2021/01/29 04:19:36;;;;;;;272.38;231.68;;;;;;;;;;5053678;28;20047;-74
2021/01/29 04:22:10;;;;;;;281.30;248.80;;;;;;;;;;5055827;28;20038;-74
2021/01/29 04:24:43;;;;;;;1967.22;999.90;;;;;;;;;;5053119;28;20029;-73
2021/01/29 04:27:11;;;;;;;583.47;524.17;;;;;;;;;;5052473;28;20041;-74
2021/01/29 04:29:39;;;;;;;313.75;281.17;;;;;;;;;;5058016;28;20033;-74
2021/01/29 04:32:07;;;;;;;266.15;202.57;;;;;;;;;;5054268;28;20488;-73
2021/01/29 04:34:35;;;;;;;342.75;308.83;;;;;;;;;;5064120;28;20037;-72
2021/01/29 04:37:03;;;;;;;1478.88;999.90;;;;;;;;;;5052707;28;20029;-73
2021/01/29 04:39:32;;;;;;;313.92;281.58;;;;;;;;;;5052962;28;20025;-72
2021/01/29 04:42:17;;;;;;;321.05;288.40;;;;;;;;;;5067335;28;20490;-72
2021/01/29 04:45:01;;;;;;;1978.43;999.90;;;;;;;;;;5055407;28;20025;-72
2021/01/29 04:47:27;;;;;;;388.88;352.83;;;;;;;;;;5054561;28;20034;-72
2021/01/29 04:50:07;;;;;;;297.52;265.55;;;;;;;;;;5056257;28;20070;-73
2021/01/29 04:52:56;;;;;;;308.02;275.63;;;;;;;;;;5068141;28;20033;-73
2021/01/29 04:55:40;;;;;;;1477.05;999.90;;;;;;;;;;5054329;28;20400;-73
2021/01/29 04:58:26;;;;;;;307.77;275.35;;;;;;;;;;5056079;28;20379;-72
2021/01/29 05:01:10;;;;;;;301.13;269.17;;;;;;;;;;5060650;28;20099;-73
2021/01/29 05:03:55;;;;;;;276.48;236.38;;;;;;;;;;5065465;28;20024;-72
2021/01/29 05:06:24;;;;;;;1967.53;999.90;;;;;;;;;;5055001;28;20126;-73
2021/01/29 05:08:53;;;;;;;348.75;314.13;;;;;;;;;;5056656;28;20059;-73
2021/01/29 05:11:19;;;;;;;342.00;308.10;;;;;;;;;;5054606;28;20033;-73
2021/01/29 05:13:57;;;;;;;311.50;279.02;;;;;;;;;;5060257;28;20035;-73
2021/01/29 05:16:25;;;;;;;284.88;250.85;;;;;;;;;;5063363;28;20074;-74
2021/01/29 05:19:07;;;;;;;323.95;290.45;;;;;;;;;;5056661;28;20029;-74
2021/01/29 05:21:52;;;;;;;275.88;217.52;;;;;;;;;;5058465;28;20107;-74
2021/01/29 05:24:24;;;;;;;277.30;232.70;;;;;;;;;;5065416;28;20037;-74
2021/01/29 05:27:12;;;;;;;286.05;249.77;;;;;;;;;;5053943;28;20033;-74
2021/01/29 05:29:47;;;;;;;306.55;273.83;;;;;;;;;;5062826;28;20033;-74
2021/01/29 05:32:51;;;;;;;310.58;277.23;;;;;;;;;;5055035;28;20048;-73
2021/01/29 05:35:20;;;;;;;297.73;264.00;;;;;;;;;;5060185;28;20465;-74
2021/01/29 05:37:46;;;;;;;344.83;310.17;;;;;;;;;;5053485;28;20032;-74
2021/01/29 05:40:12;;;;;;;294.48;255.30;;;;;;;;;;5053112;28;20033;-74
2021/01/29 05:42:47;;;;;;;1477.78;999.90;;;;;;;;;;5056244;28;20029;-74
2021/01/29 05:45:28;;;;;;;318.45;285.23;;;;;;;;;;5057909;28;20037;-74
2021/01/29 05:48:11;;;;;;;305.08;271.95;;;;;;;;;;5055374;28;20032;-74
2021/01/29 05:50:56;;;;;;;309.52;276.13;;;;;;;;;;5055891;28;20033;-75
2021/01/29 05:53:37;;;;;;;354.63;319.35;;;;;;;;;;5053096;28;20037;-75
2021/01/29 05:56:09;;;;;;;324.88;290.90;;;;;;;;;;5054392;28;20091;-75
2021/01/29 05:58:58;;;;;;;314.55;280.92;;;;;;;;;;5065744;28;20029;-75
2021/01/29 06:01:37;;;;;;;346.23;310.98;;;;;;;;;;5058896;28;20392;-74
2021/01/29 06:04:15;;;;;;;295.17;250.80;;;;;;;;;;5058069;28;20024;-74
2021/01/29 06:06:46;;;;;;;1181.72;998.13;;;;;;;;;;5053801;28;20484;-75
2021/01/29 06:09:15;;;;;;;296.83;253.27;;;;;;;;;;5053247;28;20033;-75
2021/01/29 06:12:00;;;;;;;297.48;259.75;;;;;;;;;;5063578;28;20045;-75
2021/01/29 06:14:29;;;;;;;295.08;252.00;;;;;;;;;;5063835;28;20515;-75
2021/01/29 06:16:55;;;;;;;275.73;204.25;;;;;;;;;;5053515;28;20139;-74
2021/01/29 06:19:27;;;;;;;284.52;219.18;;;;;;;;;;5054557;28;20071;-74
2021/01/29 06:22:12;;;;;;;1974.00;999.90;;;;;;;;;;5053863;28;20037;-75
2021/01/29 06:24:44;;;;;;;394.00;356.75;;;;;;;;;;5059169;28;20103;-75
2021/01/29 06:27:20;;;;;;;309.77;275.95;;;;;;;;;;5054293;28;20037;-74
2021/01/29 06:29:46;;;;;;;353.17;317.20;;;;;;;;;;5053774;28;20560;-75
2021/01/29 06:32:12;;;;;;;337.63;302.70;;;;;;;;;;5067503;28;20044;-74
2021/01/29 06:34:41;;;;;;;299.98;257.70;;;;;;;;;;5055725;28;20027;-73
2021/01/29 06:37:07;;;;;;;295.13;245.02;;;;;;;;;;5056020;28;20028;-73
2021/01/29 06:39:53;;;;;;;339.95;304.48;;;;;;;;;;5052756;28;20033;-74
2021/01/29 06:42:19;;;;;;;335.37;300.13;;;;;;;;;;5059360;28;20131;-74
2021/01/29 06:45:06;;;;;;;341.92;306.83;;;;;;;;;;5053733;28;20295;-73
2021/01/29 06:47:51;;;;;;;1977.22;999.90;;;;;;;;;;5054310;28;20087;-73
2021/01/29 06:50:39;;;;;;;1982.53;999.90;;;;;;;;;;5062680;28;20036;-73
2021/01/29 06:53:15;;;;;;;1978.32;999.90;;;;;;;;;;5055426;28;20028;-73
2021/01/29 06:55:53;;;;;;;1972.50;999.90;;;;;;;;;;5056163;28;20036;-73
2021/01/29 06:58:37;;;;;;;1481.28;999.90;;;;;;;;;;5056286;28;20037;-74
2021/01/29 07:01:22;;;;;;;361.60;325.52;;;;;;;;;;5063516;28;20130;-73
2021/01/29 07:03:54;;;;;;;1082.25;959.20;;;;;;;;;;5051047;28;20043;-68
2021/01/29 07:06:38;;;;;;;297.55;251.32;;;;;;;;;;5055283;28;20029;-74
2021/01/29 07:09:07;;;;;;;1480.15;999.90;;;;;;;;;;5067956;28;20488;-74
2021/01/29 07:11:57;;;;;;;319.60;284.75;;;;;;;;;;5057882;28;20115;-74
2021/01/29 07:14:30;;;;;;;294.80;240.95;;;;;;;;;;5055997;28;20385;-73
2021/01/29 07:17:10;;;;;;;302.13;263.17;;;;;;;;;;5053198;28;20469;-74
2021/01/29 07:19:48;;;;;;;295.20;247.50;;;;;;;;;;5052285;28;20473;-74
2021/01/29 07:22:14;;;;;;;317.58;283.20;;;;;;;;;;5060159;28;20090;-73
2021/01/29 07:24:53;;;;;;;292.20;238.70;;;;;;;;;;5061559;28;20052;-73
2021/01/29 07:27:22;;;;;;;323.20;288.50;;;;;;;;;;5056757;28;20095;-73
2021/01/29 07:30:07;;;;;;;283.48;207.23;;;;;;;;;;5058540;28;20510;-73
2021/01/29 07:32:54;;;;;;;272.27;171.90;;;;;;;;;;5056395;28;20059;-74
2021/01/29 07:35:38;;;;;;;305.15;260.45;;;;;;;;;;5053572;28;20052;-74
2021/01/29 07:38:07;;;;;;;322.95;288.42;;;;;;;;;;5062783;28;20056;-74
2021/01/29 07:40:33;;;;;;;1992.47;999.90;;;;;;;;;;5052369;28;20417;-74
2021/01/29 07:43:11;;;;;;;387.58;349.65;;;;;;;;;;5062246;28;20123;-73
2021/01/29 07:45:45;;;;;;;1983.95;999.90;;;;;;;;;;5057233;28;20036;-73
2021/01/29 07:48:30;;;;;;;356.90;320.67;;;;;;;;;;5053813;28;20021;-72
2021/01/29 07:50:59;;;;;;;1489.82;999.90;;;;;;;;;;5052610;28;20060;-72
2021/01/29 07:53:36;;;;;;;1972.50;999.90;;;;;;;;;;5051202;28;20056;-73
2021/01/29 07:56:20;;;;;;;367.33;330.58;;;;;;;;;;5059030;28;20064;-75
2021/01/29 07:59:05;;;;;;;336.40;301.05;;;;;;;;;;5054360;28;20104;-75
2021/01/29 08:01:31;;;;;;;321.52;286.52;;;;;;;;;;5055680;28;20040;-74
2021/01/29 08:04:20;;;;;;;355.83;319.77;;;;;;;;;;5058763;28;20036;-75
2021/01/29 08:06:51;;;;;;;337.48;302.08;;;;;;;;;;5065321;28;20098;-75
2021/01/29 08:09:20;;;;;;;632.35;566.47;;;;;;;;;;5051504;28;20028;-76
2021/01/29 08:11:49;;;;;;;324.70;289.83;;;;;;;;;;5054394;28;20044;-76
2021/01/29 08:14:35;;;;;;;343.60;308.00;;;;;;;;;;5056075;28;20423;-75
2021/01/29 08:17:10;;;;;;;338.63;303.13;;;;;;;;;;5054112;28;20044;-75
2021/01/29 08:19:55;;;;;;;335.35;299.70;;;;;;;;;;5058012;28;20059;-75
2021/01/29 08:22:34;;;;;;;1988.13;999.90;;;;;;;;;;5055695;28;20082;-75
2021/01/29 08:25:21;;;;;;;1479.07;999.90;;;;;;;;;;5054289;28;20016;-73
2021/01/29 08:27:55;;;;;;;343.90;308.02;;;;;;;;;;5059528;28;20054;-73
2021/01/29 08:30:40;;;;;;;608.33;542.60;;;;;;;;;;5058111;28;20044;-75
2021/01/29 08:33:12;;;;;;;394.73;356.95;;;;;;;;;;5059094;28;20076;-75
2021/01/29 08:35:44;;;;;;;386.92;349.42;;;;;;;;;;5062100;28;20151;-75
2021/01/29 08:38:10;;;;;;;347.52;311.73;;;;;;;;;;5060352;28;20104;-75
2021/01/29 08:40:45;;;;;;;332.42;297.45;;;;;;;;;;5057920;28;20769;-75
2021/01/29 08:43:20;;;;;;;371.67;334.65;;;;;;;;;;5067324;28;20104;-75
2021/01/29 08:45:58;;;;;;;354.63;318.33;;;;;;;;;;5061914;28;20033;-74
2021/01/29 08:48:30;;;;;;;312.88;276.23;;;;;;;;;;5066192;28;20089;-75
2021/01/29 08:51:15;;;;;;;324.73;290.02;;;;;;;;;;5066025;28;20060;-74
2021/01/29 08:53:51;;;;;;;292.98;240.90;;;;;;;;;;5061141;28;20040;-74
2021/01/29 08:56:35;;;;;;;372.33;335.58;;;;;;;;;;5054139;28;20037;-74
2021/01/29 08:59:03;;;;;;;319.25;285.10;;;;;;;;;;5057989;28;20032;-75
2021/01/29 09:01:35;;;;;;;318.63;284.27;;;;;;;;;;5066080;28;20032;-76
2021/01/29 09:04:01;;;;;;;308.65;272.02;;;;;;;;;;5060059;28;20021;-75
2021/01/29 09:06:30;;;;;;;302.52;265.20;;;;;;;;;;5065006;28;20083;-75
2021/01/29 09:09:01;;;;;;;457.10;409.20;;;;;;;;;;5067276;28;20021;-76
2021/01/29 09:11:37;;;;;;;1472.60;999.90;;;;;;;;;;5069392;28;20048;-76
2021/01/29 09:14:07;;;;;;;339.65;305.00;;;;;;;;;;5056346;28;20029;-76
2021/01/29 09:16:34;;;;;;;1161.53;994.08;;;;;;;;;;5055970;28;20029;-76
2021/01/29 09:19:14;;;;;;;357.67;322.00;;;;;;;;;;5060984;28;20078;-76
2021/01/29 09:22:01;;;;;;;303.08;266.77;;;;;;;;;;5057754;28;20056;-76
2021/01/29 09:24:36;;;;;;;327.80;293.55;;;;;;;;;;5067210;28;20063;-76
2021/01/29 09:27:25;;;;;;;290.38;233.48;;;;;;;;;;5058032;28;20028;-75
2021/01/29 09:29:52;;;;;;;303.52;264.05;;;;;;;;;;5062989;28;20033;-75
2021/01/29 09:32:35;;;;;;;312.00;277.00;;;;;;;;;;5059375;28;20135;-76
2021/01/29 09:35:02;;;;;;;1104.95;974.60;;;;;;;;;;5059951;28;20378;-73
2021/01/29 09:37:29;;;;;;;340.55;305.38;;;;;;;;;;5064562;28;20515;-74
2021/01/29 09:39:56;;;;;;;323.65;289.58;;;;;;;;;;5058413;28;20078;-74
2021/01/29 09:42:26;;;;;;;333.95;298.98;;;;;;;;;;5063601;28;20033;-75
2021/01/29 09:45:04;;;;;;;288.45;245.75;;;;;;;;;;5063224;28;20072;-75
2021/01/29 09:47:32;;;;;;;288.02;240.32;;;;;;;;;;5060348;28;20020;-74
2021/01/29 09:50:03;;;;;;;290.50;237.77;;;;;;;;;;5055539;28;20033;-74
2021/01/29 09:52:48;;;;;;;1994.95;999.90;;;;;;;;;;5064865;28;20167;-75
2021/01/29 09:55:20;;;;;;;424.13;383.40;;;;;;;;;;5056720;28;20047;-74
2021/01/29 09:57:56;;;;;;;349.05;313.70;;;;;;;;;;5065915;28;20043;-74
2021/01/29 10:00:32;;;;;;;1996.35;999.90;;;;;;;;;;5060937;28;20031;-75
2021/01/29 10:03:16;;;;;;;372.60;335.27;;;;;;;;;;5060869;28;20028;-75
2021/01/29 10:05:50;;;;;;;322.30;287.40;;;;;;;;;;5062133;28;20029;-74
2021/01/29 10:08:18;;;;;;;338.38;303.00;;;;;;;;;;5060169;28;20036;-74
2021/01/29 10:11:03;;;;;;;315.30;280.35;;;;;;;;;;5055523;28;20400;-74
2021/01/29 10:13:41;;;;;;;290.60;232.82;;;;;;;;;;5054939;28;20029;-75
2021/01/29 10:16:10;;;;;;;992.80;888.63;;;;;;;;;;5059234;28;20029;-75
2021/01/29 10:18:36;;;;;;;292.02;236.65;;;;;;;;;;5075213;28;20024;-75
2021/01/29 10:21:11;;;;;;;288.15;218.93;;;;;;;;;;5066209;28;20028;-75
2021/01/29 10:23:40;;;;;;;369.27;332.05;;;;;;;;;;5068260;28;20036;-75
2021/01/29 10:26:24;;;;;;;323.38;288.48;;;;;;;;;;5058598;28;20033;-74
2021/01/29 10:28:53;;;;;;;328.25;292.73;;;;;;;;;;5057324;28;20120;-74
2021/01/29 10:31:21;;;;;;;1470.93;999.90;;;;;;;;;;5067209;28;20051;-74
2021/01/29 10:33:49;;;;;;;330.70;295.42;;;;;;;;;;5057039;28;20021;-75
2021/01/29 10:36:27;;;;;;;394.00;356.05;;;;;;;;;;5053129;28;20067;-75
2021/01/29 10:38:55;;;;;;;306.10;268.23;;;;;;;;;;5068567;28;20369;-75
2021/01/29 10:41:25;;;;;;;289.05;229.60;;;;;;;;;;5063987;28;20029;-75
2021/01/29 10:43:57;;;;;;;288.17;213.57;;;;;;;;;;5068215;28;20025;-75
2021/01/29 10:46:29;;;;;;;1473.72;999.90;;;;;;;;;;5061358;28;20029;-73
2021/01/29 10:49:14;;;;;;;367.60;330.60;;;;;;;;;;5061248;28;20036;-73
2021/01/29 10:51:48;;;;;;;324.27;289.60;;;;;;;;;;5059925;28;20037;-76
2021/01/29 10:54:14;;;;;;;1976.72;999.90;;;;;;;;;;5055679;28;20032;-75
2021/01/29 10:56:40;;;;;;;352.27;315.93;;;;;;;;;;5050380;28;20090;-71
2021/01/29 10:59:14;;;;;;;362.77;326.23;;;;;;;;;;5065987;28;20037;-72
2021/01/29 11:01:43;;;;;;;297.77;261.73;;;;;;;;;;5062472;28;20039;-77
2021/01/29 11:04:16;;;;;;;301.85;256.23;;;;;;;;;;5057929;28;20485;-73
2021/01/29 11:06:54;;;;;;;302.30;258.95;;;;;;;;;;5064569;28;20142;-73
2021/01/29 11:09:26;;;;;;;1481.75;999.90;;;;;;;;;;5055735;28;20036;-73
2021/01/29 11:12:03;;;;;;;385.75;348.83;;;;;;;;;;5064726;28;20043;-73
2021/01/29 11:14:29;;;;;;;;;;;;;;;;;;5060080;28;20533;-73
2021/01/29 11:16:55;;;;;;;362.67;326.70;;;;;;;;;;5055314;28;19913;-73
2021/01/29 11:19:23;;;;;;;321.35;286.73;;;;;;;;;;5064865;28;20033;-75
2021/01/29 11:21:55;;;;;;;302.70;266.40;;;;;;;;;;5061553;28;20028;-73
2021/01/29 11:24:26;;;;;;;313.77;279.17;;;;;;;;;;5071520;28;20028;-73
2021/01/29 11:26:55;;;;;;;320.05;285.40;;;;;;;;;;5064122;28;20028;-72
2021/01/29 11:29:40;;;;;;;283.77;221.35;;;;;;;;;;5061925;28;20064;-73
2021/01/29 11:32:21;;;;;;;289.23;245.13;;;;;;;;;;5056350;28;20116;-72
2021/01/29 11:34:47;;;;;;;284.17;224.68;;;;;;;;;;5053372;28;20048;-72
2021/01/29 11:37:16;;;;;;;279.80;227.02;;;;;;;;;;5054273;28;20044;-73
2021/01/29 11:40:02;;;;;;;281.77;224.00;;;;;;;;;;5058389;28;20150;-72
2021/01/29 11:42:35;;;;;;;277.70;230.25;;;;;;;;;;5059610;28;20032;-73
2021/01/29 11:45:07;;;;;;;275.33;209.60;;;;;;;;;;5050593;28;20025;-72
2021/01/29 11:47:39;;;;;;;276.77;222.63;;;;;;;;;;5053233;28;20032;-73
2021/01/29 11:50:12;;;;;;;283.63;239.93;;;;;;;;;;5052241;28;20056;-73
2021/01/29 11:52:46;;;;;;;276.80;211.80;;;;;;;;;;5063022;28;20119;-74
2021/01/29 11:55:12;;;;;;;294.77;260.20;;;;;;;;;;5058154;28;20105;-72
2021/01/29 11:57:45;;;;;;;261.83;178.82;;;;;;;;;;5063993;28;20671;-73
2021/01/29 12:00:20;;;;;;;294.15;260.67;;;;;;;;;;5064891;28;20024;-74
2021/01/29 12:02:57;;;;;;;280.27;233.70;;;;;;;;;;5069175;28;20036;-75
2021/01/29 12:05:35;;;;;;;273.95;209.98;;;;;;;;;;5063967;28;20461;-74
2021/01/29 12:08:07;;;;;;;283.60;232.98;;;;;;;;;;5068848;28;20021;-75
2021/01/29 12:10:39;;;;;;;277.27;209.15;;;;;;;;;;5058544;28;20071;-74
2021/01/29 12:13:15;;;;;;;270.20;185.45;;;;;;;;;;5063717;28;20025;-75
2021/01/29 12:15:50;;;;;;;278.35;212.00;;;;;;;;;;5059898;28;20055;-74
2021/01/29 12:18:17;;;;;;;280.70;225.00;;;;;;;;;;5066208;28;20051;-75
2021/01/29 12:20:44;;;;;;;267.58;191.57;;;;;;;;;;5060236;28;20031;-75
2021/01/29 12:23:13;;;;;;;265.58;175.27;;;;;;;;;;5072399;28;20028;-74
2021/01/29 12:25:58;;;;;;;272.80;205.90;;;;;;;;;;5061692;28;20033;-73
2021/01/29 12:28:33;;;;;;;268.33;178.02;;;;;;;;;;5069290;28;20044;-74
2021/01/29 12:31:02;;;;;;;1273.80;999.90;;;;;;;;;;5057451;28;20063;-72
2021/01/29 12:33:29;;;;;;;274.63;204.32;;;;;;;;;;5061770;28;20025;-73
2021/01/29 12:35:56;;;;;;;291.08;243.60;;;;;;;;;;5063209;28;20033;-72
2021/01/29 12:38:26;;;;;;;288.70;247.82;;;;;;;;;;5063807;28;20480;-72
2021/01/29 12:41:03;;;;;;;271.95;208.65;;;;;;;;;;5055828;28;20025;-72
2021/01/29 12:43:29;;;;;;;;;;;;;;;;;;5062613;28;20094;-72
2021/01/29 12:45:57;;;;;;;396.30;359.48;;;;;;;;;;5063392;28;20369;-71
2021/01/29 12:48:45;;;;;;;1459.15;999.90;;;;;;;;;;5062079;28;20040;-72
2021/01/29 12:51:20;;;;;;;336.05;301.42;;;;;;;;;;5064121;28;20565;-72
2021/01/29 12:53:49;;;;;;;285.23;239.73;;;;;;;;;;5066710;28;20100;-73
2021/01/29 12:56:34;;;;;;;279.90;242.88;;;;;;;;;;5066059;28;20040;-72
2021/01/29 12:59:03;;;;;;;281.80;232.00;;;;;;;;;;5062228;28;20033;-72
2021/01/29 13:01:32;;;;;;;276.90;216.82;;;;;;;;;;5062962;28;20431;-72
2021/01/29 13:04:03;;;;;;;265.15;198.60;;;;;;;;;;5059985;28;20024;-73
2021/01/29 13:06:48;;;;;;;274.27;211.48;;;;;;;;;;5061387;28;20025;-72
2021/01/29 13:09:30;;;;;;;263.85;192.07;;;;;;;;;;5065902;28;20651;-73
2021/01/29 13:12:05;;;;;;;274.63;220.43;;;;;;;;;;5059656;28;20495;-75
2021/01/29 13:14:50;;;;;;;269.63;181.98;;;;;;;;;;5064703;28;20032;-77
2021/01/29 13:17:23;;;;;;;278.05;212.30;;;;;;;;;;5066583;28;20037;-75
2021/01/29 13:19:58;;;;;;;282.08;236.18;;;;;;;;;;5060851;28;20465;-79
2021/01/29 13:22:33;;;;;;;273.45;207.15;;;;;;;;;;5067732;28;20032;-79
2021/01/29 13:25:19;;;;;;;272.08;199.07;;;;;;;;;;5055852;28;20056;-75
2021/01/29 13:28:04;;;;;;;344.55;309.42;;;;;;;;;;5066791;28;20025;-77
2021/01/29 13:30:32;;;;;;;322.20;288.80;;;;;;;;;;5056594;28;20473;-78
2021/01/29 13:33:01;;;;;;;276.60;220.98;;;;;;;;;;5057061;28;20061;-78
2021/01/29 13:35:29;;;;;;;1978.32;999.90;;;;;;;;;;5072849;28;20456;-78
2021/01/29 13:38:14;;;;;;;375.95;339.73;;;;;;;;;;5060650;28;20157;-78
2021/01/29 13:40:40;;;;;;;290.20;251.98;;;;;;;;;;5069862;28;20027;-77
2021/01/29 13:43:17;;;;;;;264.58;189.85;;;;;;;;;;5073755;28;20103;-77
2021/01/29 13:45:45;;;;;;;346.42;311.50;;;;;;;;;;5059672;28;20028;-78
2021/01/29 13:48:11;;;;;;;;;;;;;;;;;;5070638;28;20081;-75
2021/01/29 13:50:41;;;;;;;335.60;301.38;;;;;;;;;;5073049;28;20349;-77
2021/01/29 13:53:15;;;;;;;288.15;246.30;;;;;;;;;;5070707;28;20032;-77
2021/01/29 13:55:44;;;;;;;283.42;240.90;;;;;;;;;;5064542;28;20039;-77
2021/01/29 13:58:16;;;;;;;289.58;257.55;;;;;;;;;;5070317;28;20395;-76
2021/01/29 14:00:44;;;;;;;313.48;280.02;;;;;;;;;;5068055;28;20392;-76
2021/01/29 14:03:16;;;;;;;267.80;204.15;;;;;;;;;;5074892;28;20461;-77
2021/01/29 14:05:43;;;;;;;293.77;260.33;;;;;;;;;;5058357;28;20029;-71
2021/01/29 14:08:10;;;;;;;276.70;233.93;;;;;;;;;;5060958;28;20518;-75
2021/01/29 14:10:38;;;;;;;264.52;186.48;;;;;;;;;;5065214;28;20046;-75
2021/01/29 14:13:05;;;;;;;262.70;186.68;;;;;;;;;;5057853;28;20029;-76
2021/01/29 14:15:31;;;;;;;1048.97;940.67;;;;;;;;;;5059781;28;20039;-76
2021/01/29 14:17:59;;;;;;;299.95;268.00;;;;;;;;;;5060544;28;20017;-77
2021/01/29 14:20:43;;;;;;;270.02;218.02;;;;;;;;;;5062833;28;20058;-77
2021/01/29 14:23:13;;;;;;;271.30;210.88;;;;;;;;;;5065546;28;20025;-77
2021/01/29 14:25:57;;;;;;;275.00;231.73;;;;;;;;;;5067056;28;20101;-75
2021/01/29 14:28:35;;;;;;;266.67;193.20;;;;;;;;;;5061248;28;20108;-75